Ardara, Pennsylvania
Current Conditions -  °F | °C
As of 4:53 AM on Monday 20 Oct 2014 (Local Time) from KAGC Reporting Station
Clear Clear  
Wind Chill: 37°   Ceiling: Unl
Heat Index: 42°   Visibility: 10mi
Dew Point: 32°   Wind: 9mph
Humidity: 67%   Direction: 180°S
Pressure: 30.03"   Gusts: NA
Location:  40.36°N, 79.73°W
Report Text: KAGC 200853Z 18008KT 10SM CLR 06/00 A3003 RMK AO2 SLP179 T00560000 56008
Loading
Personal Weather Stations






























Interactive Weather Map
Tropical Storm Tracking
New forecast layout! Learn more

10-Day Weather Forecast

Advertisements
Track Severe Weather on mobile